sensor_id;sensor_type;location;lat;lon;timestamp;P1;durP1;ratioP1;P2;durP2;ratioP2
56877;SDS011;42765;44.764;19.676;2022-08-30T07:49:12;13.20;;;9.60;;
56877;SDS011;42765;44.764;19.676;2022-08-30T07:51:38;17.20;;;8.40;;
56877;SDS011;42765;44.764;19.676;2022-08-30T07:54:04;13.45;;;7.82;;
56877;SDS011;42765;44.764;19.676;2022-08-30T07:56:31;11.02;;;7.05;;
56877;SDS011;42765;44.764;19.676;2022-08-30T07:58:57;14.02;;;6.82;;
56877;SDS011;42765;44.764;19.676;2022-08-30T08:01:23;16.27;;;6.70;;
56877;SDS011;42765;44.764;19.676;2022-08-30T08:03:49;11.68;;;6.97;;
56877;SDS011;42765;44.764;19.676;2022-08-30T08:06:15;11.73;;;6.45;;
56877;SDS011;42765;44.764;19.676;2022-08-30T08:08:42;7.28;;;5.65;;
56877;SDS011;42765;44.764;19.676;2022-08-30T08:11:14;9.50;;;6.60;;
56877;SDS011;42765;44.764;19.676;2022-08-30T08:13:43;10.45;;;6.68;;
56877;SDS011;42765;44.764;19.676;2022-08-30T08:16:09;13.80;;;6.47;;
56877;SDS011;42765;44.764;19.676;2022-08-30T08:18:35;10.73;;;6.30;;
56877;SDS011;42765;44.764;19.676;2022-08-30T08:21:02;11.48;;;6.40;;
56877;SDS011;42765;44.764;19.676;2022-08-30T08:23:28;10.35;;;6.43;;
56877;SDS011;42765;44.764;19.676;2022-08-30T08:25:54;6.88;;;6.18;;
56877;SDS011;42765;44.764;19.676;2022-08-30T08:28:20;13.30;;;6.72;;
56877;SDS011;42765;44.764;19.676;2022-08-30T08:30:47;11.10;;;6.68;;
56877;SDS011;42765;44.764;19.676;2022-08-30T08:33:14;7.72;;;6.53;;
56877;SDS011;42765;44.764;19.676;2022-08-30T08:35:41;9.20;;;6.35;;
56877;SDS011;42765;44.764;19.676;2022-08-30T08:38:07;8.75;;;5.75;;
56877;SDS011;42765;44.764;19.676;2022-08-30T08:40:44;10.60;;;6.00;;
56877;SDS011;42765;44.764;19.676;2022-08-30T08:43:11;8.80;;;5.50;;
56877;SDS011;42765;44.764;19.676;2022-08-30T08:50:53;8.93;;;5.45;;
56877;SDS011;42765;44.764;19.676;2022-08-30T08:53:38;6.82;;;5.03;;
56877;SDS011;42765;44.764;19.676;2022-08-30T08:56:06;9.43;;;5.30;;
56877;SDS011;42765;44.764;19.676;2022-08-30T08:58:41;7.30;;;5.35;;
56877;SDS011;42765;44.764;19.676;2022-08-30T09:01:08;9.52;;;5.47;;
56877;SDS011;42765;44.764;19.676;2022-08-30T09:03:36;10.88;;;6.35;;
56877;SDS011;42765;44.764;19.676;2022-08-30T09:06:05;10.07;;;6.32;;
56877;SDS011;42765;44.764;19.676;2022-08-30T09:19:31;9.90;;;6.43;;
56877;SDS011;42765;44.764;19.676;2022-08-30T09:21:59;12.68;;;5.50;;
56877;SDS011;42765;44.764;19.676;2022-08-30T09:24:39;6.80;;;5.80;;
56877;SDS011;42765;44.764;19.676;2022-08-30T09:27:53;6.18;;;5.57;;
56877;SDS011;42765;44.764;19.676;2022-08-30T09:30:23;10.27;;;6.57;;
56877;SDS011;42765;44.764;19.676;2022-08-30T09:35:41;11.70;;;7.15;;
56877;SDS011;42765;44.764;19.676;2022-08-30T09:38:11;22.10;;;9.57;;
56877;SDS011;42765;44.764;19.676;2022-08-30T09:45:42;11.70;;;7.53;;
56877;SDS011;42765;44.764;19.676;2022-08-30T09:48:26;15.85;;;9.10;;
56877;SDS011;42765;44.764;19.676;2022-08-30T09:56:28;9.88;;;6.40;;
56877;SDS011;42765;44.764;19.676;2022-08-30T10:01:54;16.00;;;7.30;;
56877;SDS011;42765;44.764;19.676;2022-08-30T10:07:29;8.57;;;6.07;;
56877;SDS011;42765;44.764;19.676;2022-08-30T10:10:42;8.20;;;5.95;;
56877;SDS011;42765;44.764;19.676;2022-08-30T11:46:14;8.07;;;5.05;;
56877;SDS011;42765;44.764;19.676;2022-08-30T11:48:51;6.72;;;4.95;;
56877;SDS011;42765;44.764;19.676;2022-08-30T11:54:35;7.35;;;4.68;;
56877;SDS011;42765;44.764;19.676;2022-08-30T12:00:34;11.20;;;4.57;;
56877;SDS011;42765;44.764;19.676;2022-08-30T12:03:03;5.18;;;4.05;;
56877;SDS011;42765;44.764;19.676;2022-08-30T12:08:03;3.15;;;2.50;;
56877;SDS011;42765;44.764;19.676;2022-08-30T12:10:50;8.20;;;2.30;;
56877;SDS011;42765;44.764;19.676;2022-08-30T12:16:02;4.13;;;2.67;;
56877;SDS011;42765;44.764;19.676;2022-08-30T12:18:46;5.50;;;3.50;;
56877;SDS011;42765;44.764;19.676;2022-08-30T12:26:45;4.03;;;3.15;;
56877;SDS011;42765;44.764;19.676;2022-08-30T12:29:16;6.05;;;3.60;;
56877;SDS011;42765;44.764;19.676;2022-08-30T12:39:43;11.60;;;3.92;;
56877;SDS011;42765;44.764;19.676;2022-08-30T12:42:10;25.90;;;8.00;;
56877;SDS011;42765;44.764;19.676;2022-08-30T12:44:40;30.60;;;7.80;;
56877;SDS011;42765;44.764;19.676;2022-08-30T12:47:07;22.25;;;8.35;;
56877;SDS011;42765;44.764;19.676;2022-08-30T12:49:36;21.27;;;9.20;;
56877;SDS011;42765;44.764;19.676;2022-08-30T12:55:19;19.92;;;7.88;;
56877;SDS011;42765;44.764;19.676;2022-08-30T12:58:06;20.40;;;7.97;;
56877;SDS011;42765;44.764;19.676;2022-08-30T13:03:05;13.30;;;6.95;;
56877;SDS011;42765;44.764;19.676;2022-08-30T13:05:49;11.98;;;6.97;;
56877;SDS011;42765;44.764;19.676;2022-08-30T13:11:02;9.70;;;6.85;;
56877;SDS011;42765;44.764;19.676;2022-08-30T13:13:42;10.75;;;6.68;;
56877;SDS011;42765;44.764;19.676;2022-08-30T13:21:35;11.75;;;6.80;;
56877;SDS011;42765;44.764;19.676;2022-08-30T13:24:18;8.00;;;6.32;;
56877;SDS011;42765;44.764;19.676;2022-08-30T13:26:44;9.82;;;7.20;;
56877;SDS011;42765;44.764;19.676;2022-08-30T13:29:14;9.63;;;7.20;;
56877;SDS011;42765;44.764;19.676;2022-08-30T13:31:42;10.48;;;7.45;;
56877;SDS011;42765;44.764;19.676;2022-08-30T13:43:55;8.55;;;7.47;;
56877;SDS011;42765;44.764;19.676;2022-08-30T13:46:21;6.97;;;6.38;;
56877;SDS011;42765;44.764;19.676;2022-08-30T14:01:00;15.50;;;10.77;;
56877;SDS011;42765;44.764;19.676;2022-08-30T14:03:26;14.70;;;10.70;;
56877;SDS011;42765;44.764;19.676;2022-08-30T14:05:52;14.18;;;10.27;;
56877;SDS011;42765;44.764;19.676;2022-08-30T14:08:19;12.15;;;9.00;;
56877;SDS011;42765;44.764;19.676;2022-08-30T14:10:47;16.15;;;10.55;;
56877;SDS011;42765;44.764;19.676;2022-08-30T14:13:13;12.15;;;8.55;;
56877;SDS011;42765;44.764;19.676;2022-08-30T14:15:39;11.90;;;8.30;;
56877;SDS011;42765;44.764;19.676;2022-08-30T14:22:59;12.25;;;9.50;;
56877;SDS011;42765;44.764;19.676;2022-08-30T14:25:25;15.40;;;8.80;;
56877;SDS011;42765;44.764;19.676;2022-08-30T14:27:53;13.63;;;10.10;;
56877;SDS011;42765;44.764;19.676;2022-08-30T14:30:19;17.40;;;12.35;;
56877;SDS011;42765;44.764;19.676;2022-08-30T20:21:06;17.70;;;9.35;;
56877;SDS011;42765;44.764;19.676;2022-08-30T20:23:33;17.90;;;8.57;;
56877;SDS011;42765;44.764;19.676;2022-08-30T20:26:00;15.23;;;8.15;;
56877;SDS011;42765;44.764;19.676;2022-08-30T20:28:27;10.73;;;8.43;;
56877;SDS011;42765;44.764;19.676;2022-08-30T20:30:53;17.33;;;9.73;;
56877;SDS011;42765;44.764;19.676;2022-08-30T20:33:21;18.23;;;8.93;;
56877;SDS011;42765;44.764;19.676;2022-08-30T20:35:48;15.52;;;8.95;;
56877;SDS011;42765;44.764;19.676;2022-08-30T20:38:16;12.35;;;8.52;;
56877;SDS011;42765;44.764;19.676;2022-08-30T20:40:49;19.73;;;10.50;;
56877;SDS011;42765;44.764;19.676;2022-08-30T20:43:17;13.65;;;9.10;;
56877;SDS011;42765;44.764;19.676;2022-08-30T20:45:45;15.05;;;8.52;;
56877;SDS011;42765;44.764;19.676;2022-08-30T20:55:29;20.00;;;9.82;;
56877;SDS011;42765;44.764;19.676;2022-08-30T20:57:55;15.47;;;10.40;;
56877;SDS011;42765;44.764;19.676;2022-08-30T21:00:21;12.60;;;9.75;;
56877;SDS011;42765;44.764;19.676;2022-08-30T21:02:48;13.38;;;10.75;;
56877;SDS011;42765;44.764;19.676;2022-08-30T21:05:14;13.52;;;9.80;;
56877;SDS011;42765;44.764;19.676;2022-08-30T21:07:42;13.52;;;9.45;;
56877;SDS011;42765;44.764;19.676;2022-08-30T21:10:09;10.35;;;9.30;;
56877;SDS011;42765;44.764;19.676;2022-08-30T21:12:36;12.37;;;10.30;;
56877;SDS011;42765;44.764;19.676;2022-08-30T21:15:03;11.77;;;9.35;;
56877;SDS011;42765;44.764;19.676;2022-08-30T21:17:30;13.95;;;10.27;;
56877;SDS011;42765;44.764;19.676;2022-08-30T21:19:56;11.13;;;9.93;;
56877;SDS011;42765;44.764;19.676;2022-08-30T21:22:22;12.93;;;10.57;;
56877;SDS011;42765;44.764;19.676;2022-08-30T21:24:49;15.55;;;10.48;;
56877;SDS011;42765;44.764;19.676;2022-08-30T21:27:16;15.10;;;10.20;;
56877;SDS011;42765;44.764;19.676;2022-08-30T21:29:42;13.88;;;10.32;;
56877;SDS011;42765;44.764;19.676;2022-08-30T21:32:08;14.05;;;11.10;;
56877;SDS011;42765;44.764;19.676;2022-08-30T21:34:34;15.02;;;10.52;;
56877;SDS011;42765;44.764;19.676;2022-08-30T21:37:19;13.30;;;11.70;;
56877;SDS011;42765;44.764;19.676;2022-08-30T21:39:45;15.40;;;11.15;;
56877;SDS011;42765;44.764;19.676;2022-08-30T21:42:11;18.17;;;11.38;;
56877;SDS011;42765;44.764;19.676;2022-08-30T21:44:37;13.90;;;11.10;;
56877;SDS011;42765;44.764;19.676;2022-08-30T21:47:03;17.63;;;11.95;;
56877;SDS011;42765;44.764;19.676;2022-08-30T21:49:30;14.60;;;10.80;;
56877;SDS011;42765;44.764;19.676;2022-08-30T21:51:56;13.10;;;10.65;;
56877;SDS011;42765;44.764;19.676;2022-08-30T21:54:23;16.70;;;8.95;;
56877;SDS011;42765;44.764;19.676;2022-08-30T21:56:50;15.40;;;9.88;;
56877;SDS011;42765;44.764;19.676;2022-08-30T21:59:18;15.10;;;9.60;;
56877;SDS011;42765;44.764;19.676;2022-08-30T22:01:46;12.73;;;10.65;;
56877;SDS011;42765;44.764;19.676;2022-08-30T22:04:13;19.40;;;9.90;;
56877;SDS011;42765;44.764;19.676;2022-08-30T22:06:43;16.98;;;10.18;;
56877;SDS011;42765;44.764;19.676;2022-08-30T22:09:12;12.90;;;10.88;;
56877;SDS011;42765;44.764;19.676;2022-08-30T22:14:06;14.45;;;9.73;;
56877;SDS011;42765;44.764;19.676;2022-08-30T22:16:32;14.85;;;9.98;;
56877;SDS011;42765;44.764;19.676;2022-08-30T22:18:59;19.42;;;11.05;;
56877;SDS011;42765;44.764;19.676;2022-08-30T22:21:27;13.10;;;10.77;;
56877;SDS011;42765;44.764;19.676;2022-08-30T22:23:54;16.30;;;11.30;;
56877;SDS011;42765;44.764;19.676;2022-08-30T22:26:21;19.13;;;11.98;;
56877;SDS011;42765;44.764;19.676;2022-08-30T22:28:48;14.32;;;11.25;;
56877;SDS011;42765;44.764;19.676;2022-08-30T22:31:15;17.02;;;11.40;;
56877;SDS011;42765;44.764;19.676;2022-08-30T22:33:42;11.98;;;10.63;;
56877;SDS011;42765;44.764;19.676;2022-08-30T22:36:19;12.70;;;10.57;;
56877;SDS011;42765;44.764;19.676;2022-08-30T22:38:47;18.33;;;11.13;;
56877;SDS011;42765;44.764;19.676;2022-08-30T22:41:17;19.63;;;10.85;;
56877;SDS011;42765;44.764;19.676;2022-08-30T22:43:44;14.93;;;10.80;;
56877;SDS011;42765;44.764;19.676;2022-08-30T22:46:12;20.88;;;11.38;;
56877;SDS011;42765;44.764;19.676;2022-08-30T22:48:40;13.95;;;11.30;;
56877;SDS011;42765;44.764;19.676;2022-08-30T22:51:08;16.92;;;12.13;;
56877;SDS011;42765;44.764;19.676;2022-08-30T22:53:34;20.40;;;11.38;;
56877;SDS011;42765;44.764;19.676;2022-08-30T22:56:08;18.73;;;11.45;;
56877;SDS011;42765;44.764;19.676;2022-08-30T22:58:36;13.48;;;11.63;;
56877;SDS011;42765;44.764;19.676;2022-08-30T23:01:02;15.70;;;10.75;;
56877;SDS011;42765;44.764;19.676;2022-08-30T23:03:29;12.27;;;10.88;;
56877;SDS011;42765;44.764;19.676;2022-08-30T23:05:56;15.98;;;10.57;;
56877;SDS011;42765;44.764;19.676;2022-08-30T23:08:22;16.58;;;11.05;;
56877;SDS011;42765;44.764;19.676;2022-08-30T23:10:48;14.95;;;11.25;;
56877;SDS011;42765;44.764;19.676;2022-08-30T23:13:14;19.30;;;12.70;;
56877;SDS011;42765;44.764;19.676;2022-08-30T23:15:40;19.08;;;14.68;;
56877;SDS011;42765;44.764;19.676;2022-08-30T23:18:06;25.35;;;16.40;;
56877;SDS011;42765;44.764;19.676;2022-08-30T23:20:32;19.67;;;14.85;;
56877;SDS011;42765;44.764;19.676;2022-08-30T23:22:58;15.18;;;13.48;;
56877;SDS011;42765;44.764;19.676;2022-08-30T23:25:25;15.70;;;12.95;;
56877;SDS011;42765;44.764;19.676;2022-08-30T23:28:11;19.00;;;12.13;;
56877;SDS011;42765;44.764;19.676;2022-08-30T23:31:11;20.67;;;12.52;;
56877;SDS011;42765;44.764;19.676;2022-08-30T23:33:58;15.77;;;12.75;;
56877;SDS011;42765;44.764;19.676;2022-08-30T23:36:43;15.65;;;13.15;;
56877;SDS011;42765;44.764;19.676;2022-08-30T23:39:28;17.48;;;13.30;;
56877;SDS011;42765;44.764;19.676;2022-08-30T23:42:12;22.15;;;13.85;;
56877;SDS011;42765;44.764;19.676;2022-08-30T23:44:56;17.33;;;14.07;;
56877;SDS011;42765;44.764;19.676;2022-08-30T23:47:41;18.77;;;13.63;;
56877;SDS011;42765;44.764;19.676;2022-08-30T23:50:25;19.40;;;13.43;;
56877;SDS011;42765;44.764;19.676;2022-08-30T23:53:09;15.52;;;13.52;;
56877;SDS011;42765;44.764;19.676;2022-08-30T23:55:54;18.55;;;13.63;;
56877;SDS011;42765;44.764;19.676;2022-08-30T23:58:38;17.83;;;13.43;;
